Share

Hanoi, Viet Nam

Noibai International (VVNB) Elev 36 ft | 21.22 °N, 105.81 °E | Change Station

Current weather conditions updated 19 minutes ago

Mostly Cloudy
Mostly Cloudy
81 °F
Feels Like 86 °F
N
10
Wind Variable Wind from SE
Sunrise 5:35 AM
Sunset 6:16 PM
Moon Waning Gibbous

Today is forecast to be Warmer than yesterday.

Pressure 29.77 in
Visibility 5.0 miles
Clouds Scattered Clouds 1000 ft
Mostly Cloudy 2300 ft
Heat Index 86 °F
Dew Point 75 °F
Humidity 84%
Rainfall 0.00 in
Snow Depth Not available.
UV 8 out of 16
Pollen Not available.
Air Quality Not available.
Flu Activity Not available.
METAR VVNB 180630Z 13009KT 8000 SCT010 BKN023 27/24 Q1008 NOSIG

More Conditions Fewer Conditions

Pressure 29.77 in
Visibility 5.0 miles
Clouds Scattered Clouds 1000 ft
Mostly Cloudy 2300 ft
Heat Index 86 °F
Dew Point 75 °F
Humidity 84%
Rainfall 0.00 in
Snow Depth Not available.
UV 8 out of 16
Pollen Not available.
Air Quality Not available.
Flu Activity Not available.
METAR VVNB 180630Z 13009KT 8000 SCT010 BKN023 27/24 Q1008 NOSIG

More Conditions Fewer Conditions

10-Day Forecast

Almanac

Astronomy

Apr. 18, 2014 Rise Set
Actual Time 5:35 AM ICT 6:16 PM ICT
Civil Twilight 5:13 AM ICT 6:39 PM ICT
Nautical Twilight 4:46 AM ICT 7:05 PM ICT
Astronomical Twilight 4:19 AM ICT 7:33 PM ICT
Moon 9:13 PM ICT 7:44 AM ICT
Length of Visible Light 13h 26m
Length of Day
12h 40m
Tomorrow will be 1m 7s longer.
Waning Gibbous, 90% of the Moon is Illuminated
Today
Waning Gibbous
Apr 22
Last Quarter
Apr 29
New
May 6
First Quarter
May 14
Full

Yesterday's Extremes

Country Highs Country Lows

Community

  • SUNRISE THROUGH THE TREES.
    SUNRISE THROUGH THE TREES.
  • Dog Wood Blossoms
    Dog Wood Blossoms
  • Morning Light
    Morning Light
  • New Day
    New Day
  • Lake Michigan Sunrise
    Lake Michigan Sunrise

WunderPhotos

Upload Photos

1,702,278 photos uploaded!

WunderBlogs® & News

Nearby

Snow Depth

Not available.

Coastal Water Temperatures

Place Temperature
No Stations Reporting

Earthquake Activity

City Distance Mag. Time & Date
No recent earthquake activity has been reported nearby.
Minimum magnitude displayed is 2.5.

Nearby Weather Stations

There are no personal weather stations in this area.

What do you think?

We're not finished. Please let us know what you like, what you don't like, and what you are still missing.